Time;durP1;ratioP1;P1;durP2;ratioP2;P2;SDS_P1;SDS_P2;PMS_P1;PMS_P2;Temp;Humidity;BMP_temperature;BMP_pressure;BME280_temperature;BME280_humidity;BME280_pressure;Samples;Min_cycle;Max_cycle;Signal;HPM_P1;HPM_P2
2021/08/18 00:00:42;;;;;;;7.60;6.90;;;;;;;;;;4984044;28;25028;-60
2021/08/18 00:03:08;;;;;;;7.35;6.65;;;;;;;;;;4979465;28;24958;-60
2021/08/18 00:05:33;;;;;;;6.93;6.17;;;;;;;;;;4982725;28;24412;-60
2021/08/18 00:08:00;;;;;;;7.50;6.80;;;;;;;;;;4982682;28;24479;-60
2021/08/18 00:10:26;;;;;;;7.60;6.90;;;;;;;;;;4982555;28;24529;-60
2021/08/18 00:12:51;;;;;;;7.10;6.50;;;;;;;;;;4984962;28;24975;-60
2021/08/18 00:15:17;;;;;;;7.10;6.40;;;;;;;;;;4988343;28;24748;-60
2021/08/18 00:17:43;;;;;;;7.30;6.60;;;;;;;;;;4988023;28;24491;-60
2021/08/18 00:20:08;;;;;;;7.30;6.60;;;;;;;;;;4984179;28;24451;-60
2021/08/18 00:22:34;;;;;;;6.65;6.05;;;;;;;;;;4982492;28;24942;-60
2021/08/18 00:24:59;;;;;;;6.60;6.00;;;;;;;;;;4982806;28;24385;-60
2021/08/18 00:27:24;;;;;;;6.17;5.57;;;;;;;;;;4987803;28;24477;-60
2021/08/18 00:29:49;;;;;;;6.07;5.47;;;;;;;;;;4986019;28;24972;-61
2021/08/18 00:32:14;;;;;;;6.30;5.70;;;;;;;;;;4985990;28;24444;-60
2021/08/18 00:34:39;;;;;;;6.78;6.07;;;;;;;;;;4984634;28;24457;-60
2021/08/18 00:37:04;;;;;;;6.68;6.07;;;;;;;;;;4982205;28;24988;-61
2021/08/18 00:39:30;;;;;;;7.10;6.40;;;;;;;;;;4987609;28;24424;-61
2021/08/18 00:41:55;;;;;;;6.60;6.00;;;;;;;;;;4986077;28;24412;-60
2021/08/18 00:44:20;;;;;;;6.30;5.70;;;;;;;;;;4982298;28;24825;-59
2021/08/18 00:46:53;;;;;;;5.70;5.20;;;;;;;;;;4983986;28;24959;-59
2021/08/18 00:49:19;;;;;;;7.00;6.40;;;;;;;;;;4983735;28;24880;-59
2021/08/18 00:51:45;;;;;;;5.97;5.38;;;;;;;;;;4987241;28;24463;-60
2021/08/18 00:54:10;;;;;;;5.77;5.27;;;;;;;;;;4983725;28;24412;-60
2021/08/18 00:56:35;;;;;;;6.40;5.80;;;;;;;;;;4984016;28;24679;-61
2021/08/18 00:59:00;;;;;;;6.73;6.10;;;;;;;;;;4981462;28;24452;-59
2021/08/18 01:01:26;;;;;;;6.03;5.53;;;;;;;;;;4983627;28;24480;-60
2021/08/18 01:03:51;;;;;;;5.70;5.20;;;;;;;;;;4986950;28;24420;-59
2021/08/18 01:06:16;;;;;;;6.45;5.85;;;;;;;;;;4983539;28;24934;-59
2021/08/18 01:08:41;;;;;;;6.00;5.40;;;;;;;;;;4982927;28;24393;-59
2021/08/18 01:11:06;;;;;;;5.75;5.25;;;;;;;;;;4987056;28;24927;-59
2021/08/18 01:13:31;;;;;;;6.10;5.50;;;;;;;;;;4985028;28;24837;-59
2021/08/18 01:15:58;;;;;;;6.50;5.90;;;;;;;;;;4981179;28;24393;-60
2021/08/18 01:18:23;;;;;;;7.03;6.32;;;;;;;;;;4980962;28;25112;-59
2021/08/18 01:20:48;;;;;;;6.60;6.00;;;;;;;;;;4984875;28;24424;-59
2021/08/18 01:23:15;;;;;;;7.47;6.17;;;;;;;;;;4986710;28;24484;-59
2021/08/18 01:25:42;;;;;;;5.90;5.40;;;;;;;;;;4982711;28;24416;-59
2021/08/18 01:28:08;;;;;;;6.80;6.07;;;;;;;;;;4981226;28;24852;-59
2021/08/18 01:30:33;;;;;;;6.60;6.00;;;;;;;;;;4981275;28;24417;-58
2021/08/18 01:33:00;;;;;;;7.10;6.40;;;;;;;;;;4983047;28;24413;-58
2021/08/18 01:35:25;;;;;;;7.00;6.30;;;;;;;;;;4986196;28;24950;-59
2021/08/18 01:37:51;;;;;;;7.10;6.40;;;;;;;;;;4982903;28;24946;-58
2021/08/18 01:40:16;;;;;;;7.60;6.80;;;;;;;;;;4981340;28;24377;-59
2021/08/18 01:42:41;;;;;;;7.20;6.50;;;;;;;;;;4982784;28;24492;-59
2021/08/18 01:45:07;;;;;;;7.33;6.33;;;;;;;;;;4983103;28;24945;-60
2021/08/18 01:47:32;;;;;;;7.03;6.33;;;;;;;;;;4986051;28;25001;-60
2021/08/18 01:49:57;;;;;;;6.10;5.50;;;;;;;;;;4982616;28;24428;-60
2021/08/18 01:52:22;;;;;;;6.60;5.90;;;;;;;;;;4981093;28;24951;-60
2021/08/18 01:54:47;;;;;;;6.40;5.80;;;;;;;;;;4980288;28;25018;-60
2021/08/18 01:57:12;;;;;;;6.50;5.90;;;;;;;;;;4985205;28;24406;-60
2021/08/18 01:59:38;;;;;;;6.07;5.47;;;;;;;;;;4985035;28;24508;-60
2021/08/18 02:02:03;;;;;;;5.40;4.90;;;;;;;;;;4981765;28;24756;-60
2021/08/18 02:04:28;;;;;;;6.20;5.60;;;;;;;;;;4979986;28;24496;-60
2021/08/18 02:06:53;;;;;;;5.90;5.40;;;;;;;;;;4979795;28;24404;-60
2021/08/18 02:09:18;;;;;;;6.70;6.03;;;;;;;;;;4983376;28;24472;-59
2021/08/18 02:11:44;;;;;;;5.70;5.20;;;;;;;;;;4984797;28;24389;-60
2021/08/18 02:14:09;;;;;;;6.10;5.50;;;;;;;;;;4981669;28;24407;-60
2021/08/18 02:16:34;;;;;;;5.90;5.40;;;;;;;;;;4979665;28;24460;-60
2021/08/18 02:18:59;;;;;;;6.20;5.60;;;;;;;;;;4979409;28;24942;-60
2021/08/18 02:21:24;;;;;;;6.00;5.40;;;;;;;;;;4985034;28;24393;-60
2021/08/18 02:23:49;;;;;;;6.15;5.55;;;;;;;;;;4983207;28;24428;-60
2021/08/18 02:26:14;;;;;;;6.53;5.93;;;;;;;;;;4980830;28;24475;-60
2021/08/18 02:28:39;;;;;;;6.55;5.53;;;;;;;;;;4980903;28;24389;-59
2021/08/18 02:31:05;;;;;;;6.38;5.50;;;;;;;;;;4979651;28;24509;-59
2021/08/18 02:33:30;;;;;;;5.90;5.40;;;;;;;;;;4983049;28;24782;-60
2021/08/18 02:35:55;;;;;;;6.47;5.87;;;;;;;;;;4982795;28;24451;-60
2021/08/18 02:38:20;;;;;;;6.50;5.90;;;;;;;;;;4982735;28;24412;-60
2021/08/18 02:40:45;;;;;;;5.83;5.23;;;;;;;;;;4980991;28;24401;-60
2021/08/18 02:43:10;;;;;;;7.13;6.43;;;;;;;;;;4979390;28;24919;-60
2021/08/18 02:45:36;;;;;;;5.35;4.85;;;;;;;;;;4979245;28;24954;-60
2021/08/18 02:48:01;;;;;;;6.50;5.90;;;;;;;;;;4982427;28;24408;-59
2021/08/18 02:50:27;;;;;;;6.10;5.50;;;;;;;;;;4984443;28;24498;-60
2021/08/18 02:52:53;;;;;;;6.55;5.95;;;;;;;;;;4978891;28;24404;-60
2021/08/18 02:55:18;;;;;;;6.07;5.47;;;;;;;;;;4920864;28;1693509;-60
2021/08/18 02:57:43;;;;;;;5.67;5.17;;;;;;;;;;4981314;28;24413;-59
2021/08/18 03:00:08;;;;;;;6.17;5.57;;;;;;;;;;4979828;28;24411;-60
2021/08/18 03:02:34;;;;;;;6.72;6.03;;;;;;;;;;4985061;28;24916;-59
2021/08/18 03:04:59;;;;;;;6.10;5.50;;;;;;;;;;4982866;28;24419;-60
2021/08/18 03:07:24;;;;;;;6.70;6.10;;;;;;;;;;4981581;28;24760;-61
2021/08/18 03:09:51;;;;;;;6.72;6.13;;;;;;;;;;4979208;28;24434;-60
2021/08/18 03:12:16;;;;;;;5.82;5.32;;;;;;;;;;4981483;28;24799;-59
2021/08/18 03:14:41;;;;;;;5.73;5.23;;;;;;;;;;4979299;28;24421;-59
2021/08/18 03:17:06;;;;;;;7.45;5.97;;;;;;;;;;4984913;28;24993;-59
2021/08/18 03:19:32;;;;;;;6.18;5.60;;;;;;;;;;4984585;28;24447;-60
2021/08/18 03:21:57;;;;;;;6.20;5.60;;;;;;;;;;4979382;28;24409;-59
2021/08/18 03:24:22;;;;;;;6.15;5.55;;;;;;;;;;4979378;28;24519;-60
2021/08/18 03:26:47;;;;;;;6.10;5.60;;;;;;;;;;4981033;28;24463;-60
2021/08/18 03:29:12;;;;;;;5.60;5.10;;;;;;;;;;4984472;28;24436;-60
2021/08/18 03:31:37;;;;;;;5.18;4.70;;;;;;;;;;4984580;28;24409;-61
2021/08/18 03:34:03;;;;;;;5.15;4.65;;;;;;;;;;4978522;28;24408;-59
2021/08/18 03:36:29;;;;;;;6.10;5.50;;;;;;;;;;4979168;28;24484;-60
2021/08/18 03:38:54;;;;;;;6.50;5.90;;;;;;;;;;4977725;28;24472;-60
2021/08/18 03:41:19;;;;;;;5.80;5.30;;;;;;;;;;4982931;28;24424;-59
2021/08/18 03:43:44;;;;;;;5.90;5.30;;;;;;;;;;4984472;28;24474;-61
2021/08/18 03:46:10;;;;;;;5.30;4.80;;;;;;;;;;4981142;28;24775;-58
2021/08/18 03:48:36;;;;;;;5.20;4.80;;;;;;;;;;4978827;28;24404;-59
2021/08/18 03:51:01;;;;;;;5.10;4.70;;;;;;;;;;4978570;28;24544;-59
2021/08/18 03:53:26;;;;;;;5.57;5.07;;;;;;;;;;4982485;28;24405;-58
2021/08/18 03:55:51;;;;;;;5.50;5.00;;;;;;;;;;4982421;28;24491;-61
2021/08/18 03:58:17;;;;;;;5.57;5.07;;;;;;;;;;4980764;28;24859;-59
2021/08/18 04:00:42;;;;;;;5.70;5.20;;;;;;;;;;4980601;28;24982;-59
2021/08/18 04:03:07;;;;;;;5.50;5.00;;;;;;;;;;4978699;28;24397;-60
2021/08/18 04:05:32;;;;;;;5.30;4.80;;;;;;;;;;4980627;28;24393;-60
2021/08/18 04:07:58;;;;;;;5.13;4.63;;;;;;;;;;4982310;28;24399;-60
2021/08/18 04:10:23;;;;;;;6.18;5.57;;;;;;;;;;4982366;28;24415;-60
2021/08/18 04:12:49;;;;;;;4.90;4.40;;;;;;;;;;4978916;28;25231;-60
2021/08/18 04:15:15;;;;;;;5.57;5.07;;;;;;;;;;4980636;28;25038;-60
2021/08/18 04:17:40;;;;;;;6.27;5.40;;;;;;;;;;4978945;28;24512;-59
2021/08/18 04:20:05;;;;;;;5.47;4.97;;;;;;;;;;4983812;28;24409;-61
2021/08/18 04:22:31;;;;;;;6.00;5.40;;;;;;;;;;4982412;28;24405;-58
2021/08/18 04:24:56;;;;;;;5.90;5.40;;;;;;;;;;4978854;28;24396;-59
2021/08/18 04:27:21;;;;;;;5.40;4.90;;;;;;;;;;4978733;28;24400;-59
2021/08/18 04:29:46;;;;;;;5.88;5.28;;;;;;;;;;4980313;28;24516;-60
2021/08/18 04:32:11;;;;;;;5.40;4.90;;;;;;;;;;4980658;28;24392;-60
2021/08/18 04:34:36;;;;;;;5.53;5.03;;;;;;;;;;4984392;28;25001;-60
2021/08/18 04:37:01;;;;;;;5.10;4.60;;;;;;;;;;4980194;28;24976;-60
2021/08/18 04:39:27;;;;;;;4.97;4.50;;;;;;;;;;4978379;28;24404;-60
2021/08/18 04:41:52;;;;;;;4.60;4.20;;;;;;;;;;4978276;28;24396;-60
2021/08/18 04:44:17;;;;;;;5.27;4.77;;;;;;;;;;4984137;28;24978;-60
2021/08/18 04:46:42;;;;;;;4.70;4.30;;;;;;;;;;4983864;28;24698;-60
2021/08/18 04:49:07;;;;;;;4.68;4.28;;;;;;;;;;4978463;28;24405;-60
2021/08/18 04:51:32;;;;;;;4.80;4.40;;;;;;;;;;4982044;28;25005;-60
2021/08/18 04:53:57;;;;;;;4.00;3.70;;;;;;;;;;4981881;28;25042;-60
2021/08/18 04:56:22;;;;;;;5.00;4.50;;;;;;;;;;4987328;28;25001;-61
2021/08/18 04:58:48;;;;;;;4.45;4.05;;;;;;;;;;4985316;28;24385;-61
2021/08/18 05:01:13;;;;;;;4.40;4.00;;;;;;;;;;4983553;28;24425;-60
2021/08/18 05:03:38;;;;;;;3.55;3.25;;;;;;;;;;4982736;28;24448;-61
2021/08/18 05:06:03;;;;;;;3.80;3.50;;;;;;;;;;4983492;28;24433;-60
2021/08/18 05:08:28;;;;;;;4.28;3.88;;;;;;;;;;4987054;28;24401;-61
2021/08/18 05:10:53;;;;;;;4.30;3.92;;;;;;;;;;4983388;28;24425;-60
2021/08/18 05:13:18;;;;;;;3.20;3.00;;;;;;;;;;4981616;28;24963;-60
2021/08/18 05:15:44;;;;;;;3.80;3.40;;;;;;;;;;4983395;28;24426;-61
2021/08/18 05:18:09;;;;;;;4.50;4.10;;;;;;;;;;4981259;28;24401;-60
2021/08/18 05:20:34;;;;;;;4.20;3.80;;;;;;;;;;4984554;28;24974;-59
2021/08/18 05:22:59;;;;;;;3.60;3.30;;;;;;;;;;4984823;28;24393;-59
2021/08/18 05:25:24;;;;;;;3.55;3.25;;;;;;;;;;4983342;28;24407;-59
2021/08/18 05:27:50;;;;;;;3.70;3.40;;;;;;;;;;4981345;28;24770;-60
2021/08/18 05:30:15;;;;;;;4.18;3.78;;;;;;;;;;4983185;28;24506;-60
2021/08/18 05:32:41;;;;;;;4.00;3.60;;;;;;;;;;4981142;28;24487;-60
2021/08/18 05:35:07;;;;;;;3.60;3.30;;;;;;;;;;4984566;28;25044;-61
2021/08/18 05:37:33;;;;;;;3.83;3.53;;;;;;;;;;4986803;28;24392;-60
2021/08/18 05:39:58;;;;;;;2.93;2.73;;;;;;;;;;4981016;28;24389;-61
2021/08/18 05:42:23;;;;;;;4.20;3.80;;;;;;;;;;4981086;28;24397;-60
2021/08/18 05:44:48;;;;;;;3.30;3.00;;;;;;;;;;4982807;28;24404;-60
2021/08/18 05:47:13;;;;;;;3.30;3.00;;;;;;;;;;4980966;28;24412;-59
2021/08/18 05:49:38;;;;;;;3.57;3.27;;;;;;;;;;4985781;28;24435;-59
2021/08/18 05:52:04;;;;;;;3.20;3.00;;;;;;;;;;4984364;28;24502;-62
2021/08/18 05:54:29;;;;;;;3.50;3.20;;;;;;;;;;4980774;28;24432;-59
2021/08/18 05:56:54;;;;;;;3.20;2.97;;;;;;;;;;4980891;28;24413;-61
2021/08/18 05:59:19;;;;;;;3.90;3.60;;;;;;;;;;4982485;28;24413;-60
2021/08/18 06:01:44;;;;;;;3.20;3.00;;;;;;;;;;4985276;28;24973;-60
2021/08/18 06:04:10;;;;;;;3.40;2.80;;;;;;;;;;4983025;28;24496;-60
2021/08/18 06:06:35;;;;;;;3.20;2.90;;;;;;;;;;4982638;28;24962;-60
2021/08/18 06:09:00;;;;;;;3.40;3.10;;;;;;;;;;4979443;28;24823;-61
2021/08/18 06:11:25;;;;;;;3.00;2.70;;;;;;;;;;4980690;28;24444;-60
2021/08/18 06:13:51;;;;;;;2.90;2.70;;;;;;;;;;4984227;28;24377;-60
2021/08/18 06:16:16;;;;;;;3.60;3.30;;;;;;;;;;4985968;28;24408;-60
2021/08/18 06:18:41;;;;;;;2.90;2.70;;;;;;;;;;4981914;28;24929;-60
2021/08/18 06:21:06;;;;;;;2.88;2.67;;;;;;;;;;4960050;28;25503;-61
2021/08/18 06:23:33;;;;;;;3.50;3.20;;;;;;;;;;4978944;28;24420;-61
2021/08/18 06:25:58;;;;;;;3.20;2.90;;;;;;;;;;4980643;28;24428;-60
2021/08/18 06:28:25;;;;;;;4.13;3.72;;;;;;;;;;4985005;28;24452;-60
2021/08/18 06:30:50;;;;;;;3.50;3.20;;;;;;;;;;4983719;28;24444;-62
2021/08/18 06:33:15;;;;;;;3.20;3.00;;;;;;;;;;4980021;28;24857;-62
2021/08/18 06:35:40;;;;;;;3.30;3.00;;;;;;;;;;4981695;28;25294;-60
2021/08/18 06:38:05;;;;;;;4.50;3.20;;;;;;;;;;4980220;28;24400;-61
2021/08/18 06:40:31;;;;;;;3.50;3.20;;;;;;;;;;4984846;28;24837;-61
2021/08/18 06:42:57;;;;;;;3.60;3.30;;;;;;;;;;4983593;28;24397;-60
2021/08/18 06:45:22;;;;;;;3.00;2.80;;;;;;;;;;4979800;28;24412;-61
2021/08/18 06:47:47;;;;;;;3.30;3.00;;;;;;;;;;4981846;28;24488;-60
2021/08/18 06:50:13;;;;;;;3.40;3.10;;;;;;;;;;4983298;28;24483;-62
2021/08/18 06:52:38;;;;;;;3.13;2.83;;;;;;;;;;4985145;28;24500;-60
2021/08/18 06:55:04;;;;;;;3.20;2.90;;;;;;;;;;4981009;28;24413;-60
2021/08/18 06:57:29;;;;;;;3.17;2.90;;;;;;;;;;4979670;28;24451;-60
2021/08/18 06:59:54;;;;;;;3.42;3.13;;;;;;;;;;4979635;28;24435;-61
2021/08/18 07:02:19;;;;;;;3.30;3.00;;;;;;;;;;4981116;28;24481;-60
2021/08/18 07:04:45;;;;;;;2.92;2.63;;;;;;;;;;4985236;28;24397;-61
2021/08/18 07:07:10;;;;;;;2.97;2.67;;;;;;;;;;4982823;28;24451;-62
2021/08/18 07:09:35;;;;;;;3.00;2.70;;;;;;;;;;4983318;28;24487;-61
2021/08/18 07:12:00;;;;;;;2.63;2.42;;;;;;;;;;4979049;28;24556;-62
2021/08/18 07:14:25;;;;;;;3.10;2.90;;;;;;;;;;4979673;28;25149;-61
2021/08/18 07:16:50;;;;;;;2.70;2.50;;;;;;;;;;4981249;28;24424;-60
2021/08/18 07:19:15;;;;;;;2.40;2.20;;;;;;;;;;4984171;28;24800;-60
2021/08/18 07:21:40;;;;;;;2.50;2.30;;;;;;;;;;4984170;28;24953;-60
2021/08/18 07:24:06;;;;;;;2.55;2.35;;;;;;;;;;4979290;28;24463;-59
2021/08/18 07:26:31;;;;;;;2.90;2.50;;;;;;;;;;4979260;28;24400;-60
2021/08/18 07:28:57;;;;;;;2.40;2.20;;;;;;;;;;4979053;28;24854;-60
2021/08/18 07:31:23;;;;;;;2.10;2.00;;;;;;;;;;4982376;28;24436;-60
2021/08/18 07:33:48;;;;;;;2.37;2.10;;;;;;;;;;4984605;28;24398;-60
2021/08/18 07:36:13;;;;;;;2.60;2.40;;;;;;;;;;4981040;28;24444;-59
2021/08/18 07:38:38;;;;;;;2.43;2.23;;;;;;;;;;4981177;28;24779;-60
2021/08/18 07:41:04;;;;;;;2.70;2.50;;;;;;;;;;4978865;28;24404;-60
2021/08/18 07:43:29;;;;;;;2.58;2.38;;;;;;;;;;4979045;28;24935;-59
2021/08/18 07:45:54;;;;;;;2.30;2.10;;;;;;;;;;4980908;28;25350;-60
2021/08/18 07:48:19;;;;;;;2.40;2.20;;;;;;;;;;4984320;28;24927;-61
2021/08/18 07:50:44;;;;;;;2.40;2.20;;;;;;;;;;4984238;28;24435;-61
2021/08/18 07:53:09;;;;;;;2.08;1.98;;;;;;;;;;4979110;28;24515;-60
2021/08/18 07:55:35;;;;;;;2.60;2.40;;;;;;;;;;4978967;28;24472;-60
2021/08/18 07:58:00;;;;;;;1.90;1.80;;;;;;;;;;4978844;28;24957;-60
2021/08/18 08:00:25;;;;;;;2.20;1.85;;;;;;;;;;4980341;28;24397;-60
2021/08/18 08:02:50;;;;;;;2.10;2.00;;;;;;;;;;4984266;28;24417;-60
2021/08/18 08:05:16;;;;;;;2.50;2.30;;;;;;;;;;4982328;28;24427;-60
2021/08/18 08:07:42;;;;;;;2.30;2.10;;;;;;;;;;4980433;28;24424;-60
2021/08/18 08:10:08;;;;;;;2.13;1.95;;;;;;;;;;4978490;28;24968;-60
2021/08/18 08:12:33;;;;;;;1.95;1.85;;;;;;;;;;4978693;28;24393;-60
2021/08/18 08:14:58;;;;;;;1.87;1.77;;;;;;;;;;4980622;28;24405;-60
2021/08/18 08:17:24;;;;;;;1.90;1.80;;;;;;;;;;4984235;28;24916;-60
2021/08/18 08:19:49;;;;;;;1.90;1.80;;;;;;;;;;4983598;28;24995;-61
2021/08/18 08:22:14;;;;;;;1.70;1.60;;;;;;;;;;4978642;28;24405;-60
2021/08/18 08:24:39;;;;;;;1.77;1.67;;;;;;;;;;4981451;28;24495;-60
2021/08/18 08:27:05;;;;;;;1.90;1.80;;;;;;;;;;4982369;28;24451;-60
2021/08/18 08:29:30;;;;;;;1.80;1.70;;;;;;;;;;4985434;28;24579;-60
2021/08/18 08:31:55;;;;;;;1.80;1.70;;;;;;;;;;4986125;28;24432;-60
2021/08/18 08:34:22;;;;;;;1.50;1.40;;;;;;;;;;4985572;28;24451;-61
2021/08/18 08:36:47;;;;;;;1.40;1.30;;;;;;;;;;4983879;28;24454;-61
2021/08/18 08:39:13;;;;;;;1.50;1.40;;;;;;;;;;4983351;28;24936;-60
2021/08/18 08:41:39;;;;;;;1.70;1.60;;;;;;;;;;4985468;28;24536;-60
2021/08/18 08:44:05;;;;;;;1.70;1.60;;;;;;;;;;4985738;28;24792;-60
2021/08/18 08:46:30;;;;;;;1.50;1.40;;;;;;;;;;4987081;28;24408;-60
2021/08/18 08:48:56;;;;;;;1.40;1.30;;;;;;;;;;4982111;28;24443;-60
2021/08/18 08:51:21;;;;;;;1.63;1.52;;;;;;;;;;4981602;28;24777;-60
2021/08/18 08:53:46;;;;;;;1.50;1.40;;;;;;;;;;4985512;28;24424;-60
2021/08/18 08:56:11;;;;;;;3.90;1.60;;;;;;;;;;4987341;28;24947;-60
2021/08/18 08:58:36;;;;;;;1.80;1.70;;;;;;;;;;4983402;28;24682;-60
2021/08/18 09:01:02;;;;;;;2.20;1.40;;;;;;;;;;4981660;28;24480;-60
2021/08/18 09:03:27;;;;;;;1.60;1.50;;;;;;;;;;4981612;28;24567;-59
2021/08/18 09:05:56;;;;;;;2.20;1.50;;;;;;;;;;4981690;28;24798;-60
2021/08/18 09:08:22;;;;;;;1.60;1.50;;;;;;;;;;4986821;28;24407;-60
2021/08/18 09:11:08;;;;;;;1.60;1.50;;;;;;;;;;4986499;28;24427;-60
2021/08/18 09:13:45;;;;;;;1.50;1.40;;;;;;;;;;4981381;28;24910;-60
2021/08/18 09:16:11;;;;;;;1.80;1.70;;;;;;;;;;4981522;28;24401;-60
2021/08/18 09:18:41;;;;;;;1.55;1.45;;;;;;;;;;4985110;28;24811;-60
2021/08/18 09:21:25;;;;;;;1.50;1.40;;;;;;;;;;4985126;28;24436;-61
2021/08/18 09:23:50;;;;;;;1.40;1.30;;;;;;;;;;4983541;28;24466;-60
2021/08/18 09:26:19;;;;;;;1.88;1.70;;;;;;;;;;4983385;28;24955;-61
2021/08/18 09:28:45;;;;;;;1.85;1.58;;;;;;;;;;4983209;28;24486;-60
2021/08/18 09:31:22;;;;;;;1.85;1.70;;;;;;;;;;4984866;28;24431;-60
2021/08/18 09:33:53;;;;;;;1.67;1.57;;;;;;;;;;4985708;28;24393;-61
2021/08/18 09:36:22;;;;;;;1.63;1.52;;;;;;;;;;4982710;28;24891;-60
2021/08/18 09:38:49;;;;;;;1.70;1.60;;;;;;;;;;4980992;28;24799;-60
2021/08/18 09:41:17;;;;;;;2.00;1.90;;;;;;;;;;4982619;28;24404;-61
2021/08/18 09:43:42;;;;;;;1.60;1.50;;;;;;;;;;4982691;28;24408;-60
2021/08/18 09:46:07;;;;;;;1.83;1.50;;;;;;;;;;4986399;28;24405;-60
2021/08/18 09:48:33;;;;;;;1.60;1.50;;;;;;;;;;4986238;28;25005;-61
2021/08/18 09:51:03;;;;;;;1.60;1.50;;;;;;;;;;4980719;28;24544;-61
2021/08/18 09:53:32;;;;;;;1.60;1.50;;;;;;;;;;4980854;28;24409;-61
2021/08/18 09:56:02;;;;;;;1.50;1.40;;;;;;;;;;4981074;28;24986;-61
2021/08/18 09:58:34;;;;;;;1.13;1.02;;;;;;;;;;4984268;28;24409;-61
2021/08/18 10:01:00;;;;;;;1.60;1.50;;;;;;;;;;4984566;28;24408;-61
2021/08/18 10:03:26;;;;;;;1.50;1.40;;;;;;;;;;4984562;28;24397;-61
2021/08/18 10:05:53;;;;;;;1.50;1.20;;;;;;;;;;4980905;28;24393;-61
2021/08/18 10:08:19;;;;;;;1.30;1.20;;;;;;;;;;4980247;28;24781;-60
2021/08/18 10:10:44;;;;;;;1.20;1.10;;;;;;;;;;4982217;28;24507;-63
2021/08/18 10:13:10;;;;;;;1.30;1.20;;;;;;;;;;4985856;28;24829;-60
2021/08/18 10:15:35;;;;;;;2.05;1.80;;;;;;;;;;4985771;28;24389;-60
2021/08/18 10:18:01;;;;;;;1.30;1.20;;;;;;;;;;4980608;28;24520;-60
2021/08/18 10:20:27;;;;;;;1.30;1.20;;;;;;;;;;4980090;28;24447;-60
2021/08/18 10:23:03;;;;;;;1.40;1.30;;;;;;;;;;4980437;28;24492;-60
2021/08/18 10:25:34;;;;;;;1.60;1.50;;;;;;;;;;4985515;28;24452;-60
2021/08/18 10:27:59;;;;;;;1.20;1.10;;;;;;;;;;4983927;28;24446;-60
2021/08/18 10:30:25;;;;;;;1.50;1.40;;;;;;;;;;4979855;28;24516;-60
2021/08/18 10:32:51;;;;;;;1.52;1.42;;;;;;;;;;4980189;28;24639;-60
2021/08/18 10:35:34;;;;;;;1.45;1.35;;;;;;;;;;4981914;28;24947;-61
2021/08/18 10:38:18;;;;;;;1.60;1.50;;;;;;;;;;4983673;28;25156;-61
2021/08/18 10:40:43;;;;;;;1.90;1.60;;;;;;;;;;4984971;28;24764;-60
2021/08/18 10:43:08;;;;;;;1.40;1.30;;;;;;;;;;4980175;28;24947;-61
2021/08/18 10:45:36;;;;;;;1.20;1.10;;;;;;;;;;4979861;28;24821;-61
2021/08/18 10:48:03;;;;;;;1.48;1.08;;;;;;;;;;4981189;28;24397;-60
2021/08/18 10:50:42;;;;;;;2.50;0.90;;;;;;;;;;4984815;28;24963;-61
2021/08/18 10:53:26;;;;;;;1.20;0.90;;;;;;;;;;4983500;28;24459;-61
2021/08/18 10:55:51;;;;;;;1.30;1.20;;;;;;;;;;4979674;28;24413;-61
2021/08/18 10:58:26;;;;;;;1.10;1.00;;;;;;;;;;4981474;28;24459;-60
2021/08/18 11:00:51;;;;;;;1.30;0.95;;;;;;;;;;4983089;28;24397;-61
2021/08/18 11:03:16;;;;;;;1.10;1.10;;;;;;;;;;4985115;28;24412;-61
2021/08/18 11:05:48;;;;;;;1.50;1.40;;;;;;;;;;4984858;28;24819;-61
2021/08/18 11:08:14;;;;;;;1.30;1.20;;;;;;;;;;4981491;28;24454;-62
2021/08/18 11:10:41;;;;;;;1.20;1.20;;;;;;;;;;4978922;28;24432;-61
2021/08/18 11:13:07;;;;;;;1.60;1.20;;;;;;;;;;4979738;28;25234;-61
2021/08/18 11:15:32;;;;;;;1.50;1.40;;;;;;;;;;4983232;28;24444;-62
2021/08/18 11:17:58;;;;;;;1.45;1.35;;;;;;;;;;4983297;28;24396;-62
2021/08/18 11:20:23;;;;;;;1.60;1.50;;;;;;;;;;4982686;28;24405;-62
2021/08/18 11:22:55;;;;;;;1.40;1.30;;;;;;;;;;4981202;28;24401;-61
2021/08/18 11:25:20;;;;;;;1.60;1.50;;;;;;;;;;4979237;28;24412;-61
2021/08/18 11:27:46;;;;;;;1.50;1.40;;;;;;;;;;4980910;28;24400;-61
2021/08/18 11:30:11;;;;;;;1.70;1.60;;;;;;;;;;4984468;28;26054;-61
2021/08/18 11:32:36;;;;;;;1.50;1.40;;;;;;;;;;4982894;28;24411;-61
2021/08/18 11:35:01;;;;;;;1.50;1.40;;;;;;;;;;4979484;28;24440;-61
2021/08/18 11:37:27;;;;;;;1.20;1.10;;;;;;;;;;4979224;28;24413;-61
2021/08/18 11:39:55;;;;;;;1.33;1.23;;;;;;;;;;4982726;28;24401;-62
2021/08/18 11:42:20;;;;;;;1.10;1.10;;;;;;;;;;4984440;28;24403;-61
2021/08/18 11:44:47;;;;;;;2.20;1.30;;;;;;;;;;4980867;28;24417;-61
2021/08/18 11:47:15;;;;;;;1.20;1.20;;;;;;;;;;4979308;28;24452;-61
2021/08/18 11:49:43;;;;;;;1.60;1.50;;;;;;;;;;4979112;28;25005;-61
2021/08/18 11:52:14;;;;;;;1.40;1.30;;;;;;;;;;4980839;28;24546;-61
2021/08/18 11:54:39;;;;;;;1.50;1.40;;;;;;;;;;4984200;28;25306;-61
2021/08/18 11:57:06;;;;;;;1.80;1.40;;;;;;;;;;4980766;28;24405;-61
2021/08/18 11:59:31;;;;;;;1.40;1.30;;;;;;;;;;4979925;28;24411;-60
2021/08/18 12:01:57;;;;;;;1.30;1.20;;;;;;;;;;4984413;28;24492;-60
2021/08/18 12:04:22;;;;;;;1.60;1.50;;;;;;;;;;4988335;28;24425;-60
2021/08/18 12:07:03;;;;;;;2.22;1.60;;;;;;;;;;4986380;28;24417;-60
2021/08/18 12:09:28;;;;;;;1.60;1.50;;;;;;;;;;4983009;28;24408;-60
2021/08/18 12:12:04;;;;;;;1.48;1.38;;;;;;;;;;4982754;28;24487;-61
2021/08/18 12:14:35;;;;;;;1.35;1.25;;;;;;;;;;4984639;28;24923;-61
2021/08/18 12:17:01;;;;;;;2.40;1.40;;;;;;;;;;4988025;28;24800;-60
2021/08/18 12:19:26;;;;;;;1.37;1.27;;;;;;;;;;4987588;28;24389;-61
2021/08/18 12:22:02;;;;;;;1.20;1.10;;;;;;;;;;4982398;28;24489;-61
2021/08/18 12:24:28;;;;;;;1.50;1.40;;;;;;;;;;4982774;28;24456;-62
2021/08/18 12:27:05;;;;;;;1.23;1.20;;;;;;;;;;4982649;28;24401;-62
2021/08/18 12:29:30;;;;;;;1.10;1.10;;;;;;;;;;4986182;28;24389;-61
2021/08/18 12:32:01;;;;;;;1.30;1.20;;;;;;;;;;4985657;28;24745;-61
2021/08/18 12:34:32;;;;;;;1.20;1.10;;;;;;;;;;4986330;28;24474;-60
2021/08/18 12:36:59;;;;;;;1.20;1.10;;;;;;;;;;4982652;28;24836;-60
2021/08/18 12:39:29;;;;;;;1.23;1.20;;;;;;;;;;4982420;28;24473;-61
2021/08/18 12:41:54;;;;;;;1.10;1.10;;;;;;;;;;4982192;28;24393;-61
2021/08/18 12:44:27;;;;;;;1.30;1.20;;;;;;;;;;4987547;28;24433;-63
2021/08/18 12:47:02;;;;;;;1.70;1.50;;;;;;;;;;4987577;28;24416;-62
2021/08/18 12:49:28;;;;;;;1.48;1.38;;;;;;;;;;4983874;28;24437;-61
2021/08/18 12:51:54;;;;;;;1.00;1.00;;;;;;;;;;4981615;28;24876;-61
2021/08/18 12:54:19;;;;;;;1.10;1.00;;;;;;;;;;4983573;28;24455;-63
2021/08/18 12:56:45;;;;;;;1.50;1.40;;;;;;;;;;4984782;28;25271;-63
2021/08/18 12:59:10;;;;;;;1.40;1.30;;;;;;;;;;4986637;28;24413;-62
2021/08/18 13:01:35;;;;;;;1.50;1.20;;;;;;;;;;4985217;28;24404;-61
2021/08/18 13:04:00;;;;;;;1.20;1.10;;;;;;;;;;4981942;28;24488;-62
2021/08/18 13:06:25;;;;;;;1.25;1.15;;;;;;;;;;4982022;28;24928;-61
2021/08/18 13:08:50;;;;;;;1.30;1.10;;;;;;;;;;4981590;28;25054;-59
2021/08/18 13:11:16;;;;;;;1.20;1.10;;;;;;;;;;4986501;28;24417;-61
2021/08/18 13:13:41;;;;;;;1.70;1.40;;;;;;;;;;4986709;28;25005;-61
2021/08/18 13:16:06;;;;;;;1.40;1.30;;;;;;;;;;4981959;28;24401;-61
2021/08/18 13:18:31;;;;;;;1.77;1.30;;;;;;;;;;4980975;28;25033;-61
2021/08/18 13:20:57;;;;;;;1.40;1.30;;;;;;;;;;4981756;28;24516;-61
2021/08/18 13:23:22;;;;;;;1.50;1.10;;;;;;;;;;4984776;28;24839;-62
2021/08/18 13:25:47;;;;;;;1.40;1.30;;;;;;;;;;4986801;28;24401;-61
2021/08/18 13:28:12;;;;;;;1.00;1.00;;;;;;;;;;4981305;28;24501;-62
2021/08/18 13:30:37;;;;;;;1.17;1.07;;;;;;;;;;4982966;28;24448;-61
2021/08/18 13:33:02;;;;;;;1.45;1.00;;;;;;;;;;4981228;28;24509;-61
2021/08/18 13:35:29;;;;;;;1.23;1.13;;;;;;;;;;4983108;28;24504;-61
2021/08/18 13:37:55;;;;;;;1.10;1.00;;;;;;;;;;4984921;28;24427;-61
2021/08/18 13:40:20;;;;;;;1.30;1.20;;;;;;;;;;4986374;28;25023;-60
2021/08/18 13:42:47;;;;;;;1.67;1.20;;;;;;;;;;4982705;28;24400;-61
2021/08/18 13:45:12;;;;;;;1.60;1.50;;;;;;;;;;4981044;28;24389;-60
2021/08/18 13:47:37;;;;;;;1.30;1.30;;;;;;;;;;4984693;28;24748;-60
2021/08/18 13:50:03;;;;;;;1.30;1.20;;;;;;;;;;4984163;28;24463;-60
2021/08/18 13:52:28;;;;;;;1.40;1.30;;;;;;;;;;4986110;28;24405;-61
2021/08/18 13:54:53;;;;;;;1.40;1.30;;;;;;;;;;4980911;28;24468;-61
2021/08/18 13:57:18;;;;;;;1.80;1.50;;;;;;;;;;4980614;28;25205;-60
2021/08/18 13:59:44;;;;;;;1.50;1.30;;;;;;;;;;4982330;28;24397;-60
2021/08/18 14:02:09;;;;;;;1.30;1.10;;;;;;;;;;4968228;28;24405;-60
2021/08/18 14:04:34;;;;;;;1.40;1.30;;;;;;;;;;4984388;28;24907;-61
2021/08/18 14:06:59;;;;;;;1.25;1.15;;;;;;;;;;4980919;28;24499;-60
2021/08/18 14:09:24;;;;;;;1.60;1.20;;;;;;;;;;4980672;28;24409;-60
2021/08/18 14:11:49;;;;;;;1.40;1.20;;;;;;;;;;4980273;28;24500;-60
2021/08/18 14:14:15;;;;;;;1.30;1.20;;;;;;;;;;4985948;28;24397;-61
2021/08/18 14:16:40;;;;;;;1.37;1.30;;;;;;;;;;4985674;28;24834;-59
2021/08/18 14:19:06;;;;;;;1.43;1.30;;;;;;;;;;4980170;28;24388;-61
2021/08/18 14:21:32;;;;;;;1.67;1.40;;;;;;;;;;4979487;28;24416;-59
2021/08/18 14:23:57;;;;;;;1.70;1.40;;;;;;;;;;4961658;28;24408;-59
2021/08/18 14:26:22;;;;;;;1.60;1.50;;;;;;;;;;4983076;28;24405;-60
2021/08/18 14:28:47;;;;;;;1.30;1.20;;;;;;;;;;4984779;28;24389;-60
2021/08/18 14:31:12;;;;;;;1.52;1.42;;;;;;;;;;4979826;28;24527;-60
2021/08/18 14:33:37;;;;;;;1.30;1.20;;;;;;;;;;4980882;28;24401;-60
2021/08/18 14:36:03;;;;;;;1.60;1.50;;;;;;;;;;4979626;28;24764;-61